Time;durP1;ratioP1;P1;durP2;ratioP2;P2;SDS_P1;SDS_P2;PMS_P1;PMS_P2;Temp;Humidity;BMP_temperature;BMP_pressure;BME280_temperature;BME280_humidity;BME280_pressure;Samples;Min_cycle;Max_cycle;Signal;HPM_P1;HPM_P2
2023/06/22 00:00:14;;;;;;;20.40;13.23;;;19.00;53.20;;;;;;6105808;23;20325;-87
2023/06/22 00:03:02;;;;;;;16.63;12.55;;;19.00;99.90;;;;;;6101211;23;20026;-88
2023/06/22 00:05:53;;;;;;;18.75;14.07;;;18.90;99.90;;;;;;6120337;23;20030;-88
2023/06/22 00:08:41;;;;;;;20.10;14.82;;;18.90;99.90;;;;;;6101558;23;20339;-88
2023/06/22 00:11:33;;;;;;;18.95;14.50;;;18.90;99.90;;;;;;6121268;23;20126;-90
2023/06/22 00:14:25;;;;;;;20.38;15.25;;;18.90;99.90;;;;;;6122225;23;20455;-88
2023/06/22 00:17:12;;;;;;;20.45;14.35;;;18.80;99.90;;;;;;6127582;22;20025;-88
2023/06/22 00:20:00;;;;;;;21.85;14.52;;;18.80;99.90;;;;;;6119585;23;20102;-89
2023/06/22 00:22:49;;;;;;;21.70;14.27;;;18.80;1.00;;;;;;6122734;23;20018;-89
2023/06/22 00:25:42;;;;;;;17.80;14.63;;;18.80;99.90;;;;;;6122399;23;20026;-87
2023/06/22 00:28:31;;;;;;;20.75;15.18;;;18.70;1.00;;;;;;6104862;23;20030;-87
2023/06/22 00:31:24;;;;;;;21.08;15.40;;;18.60;1.00;;;;;;6122669;23;20369;-86
2023/06/22 00:34:14;;;;;;;21.27;15.50;;;18.60;1.00;;;;;;6105455;23;20037;-89
2023/06/22 00:37:05;;;;;;;25.10;14.80;;;18.50;14.90;;;;;;6122545;23;20026;-87
2023/06/22 00:39:55;;;;;;;18.20;14.18;;;18.60;99.90;;;;;;6099724;23;20026;-88
2023/06/22 00:42:44;;;;;;;29.63;15.32;;;18.60;99.90;;;;;;6100783;23;20018;-87
2023/06/22 00:45:31;;;;;;;20.10;14.98;;;18.60;99.90;;;;;;6104900;23;20424;-87
2023/06/22 00:48:19;;;;;;;18.95;14.32;;;18.60;99.90;;;;;;6106226;23;20099;-85
2023/06/22 00:51:11;;;;;;;20.45;15.65;;;18.50;99.90;;;;;;6106892;23;20030;-87
2023/06/22 00:54:05;;;;;;;21.40;15.18;;;18.40;99.90;;;;;;6101549;23;20034;-87
2023/06/22 00:56:59;;;;;;;17.90;14.50;;;18.40;99.90;;;;;;6121919;23;20108;-87
2023/06/22 00:59:50;;;;;;;20.10;14.85;;;18.30;99.90;;;;;;6105403;23;20029;-87
2023/06/22 01:02:41;;;;;;;21.73;13.60;;;18.30;99.90;;;;;;6120931;23;20316;-87
2023/06/22 01:05:31;;;;;;;20.98;15.10;;;18.20;99.90;;;;;;6121703;23;20025;-87
2023/06/22 01:08:24;;;;;;;21.80;16.30;;;18.30;99.90;;;;;;6101513;23;20022;-88
2023/06/22 01:11:28;;;;;;;19.60;16.20;;;18.20;99.90;;;;;;6101747;23;20052;-88
2023/06/22 01:14:21;;;;;;;21.05;15.60;;;18.20;99.90;;;;;;6104020;23;20424;-88
2023/06/22 01:17:12;;;;;;;18.90;15.77;;;18.20;99.90;;;;;;6103367;23;20084;-87
2023/06/22 01:20:04;;;;;;;22.73;15.80;;;18.10;99.90;;;;;;6119949;23;20026;-86
2023/06/22 01:23:05;;;;;;;22.83;16.50;;;18.20;99.90;;;;;;6100423;23;20067;-87
2023/06/22 01:25:59;;;;;;;23.63;15.32;;;18.20;99.90;;;;;;6122192;23;20033;-89
2023/06/22 01:28:52;;;;;;;24.63;16.23;;;18.20;99.90;;;;;;6100458;23;20114;-87
2023/06/22 01:31:44;;;;;;;22.05;16.33;;;18.30;99.90;;;;;;6120618;23;20133;-88
2023/06/22 01:34:35;;;;;;;23.27;15.52;;;18.30;99.90;;;;;;6100214;23;20026;-89
2023/06/22 01:37:25;;;;;;;22.25;14.70;;;18.30;99.90;;;;;;6122876;23;20033;-87
2023/06/22 01:40:13;;;;;;;22.77;15.93;;;18.20;99.90;;;;;;6122673;23;20022;-89
2023/06/22 01:43:06;;;;;;;26.58;15.93;;;18.20;99.90;;;;;;6124534;23;20026;-90
2023/06/22 01:45:59;;;;;;;20.33;15.13;;;18.30;99.90;;;;;;6104842;23;20026;-90
2023/06/22 01:48:47;;;;;;;17.95;14.27;;;18.30;99.90;;;;;;6124520;23;20425;-89
2023/06/22 01:51:38;;;;;;;20.75;14.45;;;18.30;99.90;;;;;;6103269;23;20022;-88
2023/06/22 01:54:25;;;;;;;23.23;16.13;;;18.20;99.90;;;;;;6102168;23;20022;-87
2023/06/22 01:57:13;;;;;;;22.27;16.00;;;18.20;99.90;;;;;;6132606;23;20041;-91
2023/06/22 02:00:04;;;;;;;24.23;16.50;;;18.30;99.90;;;;;;6137350;23;20034;-89
2023/06/22 02:03:08;;;;;;;19.13;14.32;;;18.20;99.90;;;;;;6130245;23;20095;-87
2023/06/22 02:06:02;;;;;;;21.92;15.77;;;18.20;99.90;;;;;;6131960;23;20056;-88
2023/06/22 02:08:59;;;;;;;26.63;17.20;;;18.00;99.90;;;;;;6136508;23;20048;-89
2023/06/22 02:11:48;;;;;;;20.95;16.58;;;18.00;99.90;;;;;;6122548;23;20045;-89
2023/06/22 02:14:36;;;;;;;26.83;15.15;;;18.10;99.90;;;;;;6134206;23;20032;-88
2023/06/22 02:17:26;;;;;;;22.08;16.08;;;18.10;99.90;;;;;;6129556;23;20033;-90
2023/06/22 02:20:16;;;;;;;23.98;16.60;;;18.00;99.90;;;;;;6112876;23;20504;-89
2023/06/22 02:23:05;;;;;;;22.20;17.08;;;18.00;99.90;;;;;;6126558;23;20429;-93
2023/06/22 02:25:55;;;;;;;23.13;15.85;;;18.00;99.90;;;;;;6101818;23;20414;-88
2023/06/22 02:28:42;;;;;;;23.08;16.13;;;17.90;99.90;;;;;;6123702;23;20344;-88
2023/06/22 02:31:30;;;;;;;24.65;17.20;;;17.90;99.90;;;;;;6123170;23;20034;-89
2023/06/22 02:34:18;;;;;;;22.70;16.35;;;18.00;99.90;;;;;;6124817;23;20037;-89
2023/06/22 02:37:05;;;;;;;21.50;15.27;;;18.00;99.90;;;;;;6106082;23;20033;-89
2023/06/22 02:39:53;;;;;;;27.27;14.40;;;18.20;99.90;;;;;;6106670;23;20030;-89
2023/06/22 02:42:40;;;;;;;26.05;14.30;;;18.30;99.90;;;;;;6123612;23;20044;-87
2023/06/22 02:45:27;;;;;;;17.40;13.50;;;18.20;99.90;;;;;;6105922;23;20036;-87
2023/06/22 02:48:15;;;;;;;23.35;15.60;;;18.10;99.90;;;;;;6125665;23;20034;-90
2023/06/22 02:51:02;;;;;;;19.10;15.88;;;18.00;99.90;;;;;;6110704;23;20385;-91
2023/06/22 02:53:52;;;;;;;22.02;16.60;;;18.00;99.90;;;;;;6107927;23;20041;-90
2023/06/22 02:56:40;;;;;;;22.05;15.27;;;18.00;99.90;;;;;;6105598;23;20773;-91
2023/06/22 02:59:28;;;;;;;22.50;15.27;;;18.00;99.90;;;;;;6103320;23;20584;-88
2023/06/22 03:02:15;;;;;;;24.95;15.10;;;18.00;99.90;;;;;;6106431;23;20401;-90
2023/06/22 03:05:03;;;;;;;22.27;15.75;;;18.00;99.90;;;;;;6100679;23;20322;-88
2023/06/22 03:07:51;;;;;;;22.48;15.00;;;18.00;99.90;;;;;;6121328;23;20401;-90
2023/06/22 03:10:38;;;;;;;22.88;15.10;;;18.00;99.90;;;;;;6105651;23;20037;-91
2023/06/22 03:13:30;;;;;;;22.13;14.88;;;17.90;99.90;;;;;;6123505;23;20022;-90
2023/06/22 03:16:18;;;;;;;22.95;15.48;;;17.90;99.90;;;;;;6122193;23;20624;-90
2023/06/22 03:19:05;;;;;;;21.83;14.63;;;17.80;99.90;;;;;;6104402;23;20080;-88
2023/06/22 03:21:52;;;;;;;26.08;14.70;;;17.70;99.90;;;;;;6101522;23;20026;-88
2023/06/22 03:24:39;;;;;;;21.08;15.27;;;17.70;99.90;;;;;;6123535;23;20026;-90
2023/06/22 03:27:27;;;;;;;24.27;15.70;;;17.60;99.90;;;;;;6105145;23;20037;-89
2023/06/22 03:30:14;;;;;;;21.38;15.57;;;17.60;99.90;;;;;;6122254;23;20336;-89
2023/06/22 03:33:02;;;;;;;20.25;15.55;;;17.50;99.90;;;;;;6101473;23;20030;-88
2023/06/22 03:35:49;;;;;;;23.10;15.90;;;17.50;99.90;;;;;;6120345;23;20029;-88
2023/06/22 03:38:37;;;;;;;23.88;16.90;;;17.50;99.90;;;;;;6124059;23;20078;-88
2023/06/22 03:41:28;;;;;;;29.10;17.65;;;17.40;99.90;;;;;;6100413;23;20061;-88
2023/06/22 03:44:15;;;;;;;23.73;16.00;;;17.40;99.90;;;;;;6123953;23;20026;-89
2023/06/22 03:47:08;;;;;;;23.55;16.77;;;17.30;99.90;;;;;;6102074;23;20040;-90
2023/06/22 03:49:56;;;;;;;24.00;16.73;;;17.30;99.90;;;;;;6122418;23;20425;-89
2023/06/22 03:52:44;;;;;;;25.77;17.30;;;17.30;99.90;;;;;;6122465;23;20085;-89
2023/06/22 03:55:33;;;;;;;23.40;16.65;;;17.20;99.90;;;;;;6123544;23;20022;-89
2023/06/22 03:58:21;;;;;;;21.63;16.17;;;17.30;99.90;;;;;;6124027;23;20030;-88
2023/06/22 04:01:35;;;;;;;24.83;16.85;;;17.30;99.90;;;;;;6123247;23;20097;-88
2023/06/22 04:04:42;;;;;;;21.85;17.08;;;17.30;99.90;;;;;;6106129;23;20037;-89
2023/06/22 04:07:32;;;;;;;25.00;17.23;;;17.40;99.90;;;;;;6105042;23;20033;-89
2023/06/22 04:10:19;;;;;;;26.65;17.83;;;17.50;99.90;;;;;;6105808;23;20330;-89
2023/06/22 04:13:09;;;;;;;26.85;16.80;;;17.60;99.90;;;;;;6102846;23;20098;-91
2023/06/22 04:15:56;;;;;;;20.05;16.05;;;17.70;99.90;;;;;;6124025;23;20022;-91
2023/06/22 04:18:44;;;;;;;22.38;16.70;;;17.70;99.90;;;;;;6124318;23;20033;-88
2023/06/22 04:21:31;;;;;;;24.50;15.13;;;17.80;99.90;;;;;;6123063;23;20030;-90
2023/06/22 04:24:18;;;;;;;18.67;14.55;;;17.80;99.90;;;;;;6105908;23;20041;-90
2023/06/22 04:31:17;;;;;;;20.95;15.38;;;18.00;99.90;;;;;;6126549;23;20033;-89
2023/06/22 04:34:08;;;;;;;20.90;14.93;;;18.00;99.90;;;;;;6104583;23;20452;-87
2023/06/22 04:36:55;;;;;;;20.38;14.77;;;18.10;99.90;;;;;;6124592;23;20034;-88
2023/06/22 04:39:43;;;;;;;19.70;13.98;;;18.10;99.90;;;;;;6124594;23;20333;-88
2023/06/22 04:42:31;;;;;;;21.63;14.07;;;18.20;99.90;;;;;;6121649;23;20037;-88
2023/06/22 04:45:20;;;;;;;20.73;13.70;;;18.30;99.90;;;;;;6102476;23;20302;-87
2023/06/22 04:48:15;;;;;;;17.10;13.27;;;18.30;99.90;;;;;;6121873;23;20022;-88
2023/06/22 04:51:04;;;;;;;18.42;13.63;;;18.40;99.90;;;;;;6123806;23;20084;-88
2023/06/22 04:53:52;;;;;;;19.50;14.13;;;18.40;99.90;;;;;;6101245;23;20022;-87
2023/06/22 04:59:29;;;;;;;17.25;13.05;;;18.60;99.90;;;;;;6120723;22;20135;-88
2023/06/22 05:02:16;;;;;;;18.45;12.93;;;18.70;99.90;;;;;;6131108;23;20041;-90
2023/06/22 05:05:07;;;;;;;18.52;12.93;;;18.80;99.90;;;;;;6130659;23;20026;-91
2023/06/22 05:08:00;;;;;;;16.25;12.43;;;18.90;99.90;;;;;;6151731;23;20104;-90
2023/06/22 05:10:51;;;;;;;17.00;12.50;;;19.00;99.40;;;;;;6152117;23;20021;-89
2023/06/22 05:13:52;;;;;;;19.27;12.93;;;19.10;1.00;;;;;;6132396;23;20479;-90
2023/06/22 05:16:49;;;;;;;14.73;11.30;;;19.20;99.90;;;;;;6130261;23;20018;-91
2023/06/22 05:19:44;;;;;;;14.20;10.85;;;19.30;93.30;;;;;;6131768;23;20105;-90
2023/06/22 05:22:36;;;;;;;18.98;11.65;;;19.50;1.00;;;;;;6132346;23;20021;-91
2023/06/22 05:25:26;;;;;;;20.13;11.10;;;19.60;99.90;;;;;;6132429;23;20087;-91
2023/06/22 05:28:14;;;;;;;14.85;10.73;;;19.80;1.00;;;;;;6150009;23;20340;-90
2023/06/22 05:31:01;;;;;;;11.68;10.00;;;19.80;99.90;;;;;;6149683;23;20034;-90
2023/06/22 05:33:54;;;;;;;17.52;9.70;;;20.00;1.00;;;;;;6130333;23;20029;-91
2023/06/22 05:36:43;;;;;;;14.25;10.05;;;20.10;99.90;;;;;;6130729;23;20021;-93
2023/06/22 05:39:33;;;;;;;13.95;9.77;;;20.10;70.50;;;;;;6151347;23;20030;-89
2023/06/22 05:42:21;;;;;;;17.98;10.07;;;20.30;1.00;;;;;;6148979;23;20048;-90
2023/06/22 05:45:08;;;;;;;17.98;9.82;;;20.40;99.90;;;;;;6149834;23;20025;-90
2023/06/22 05:47:59;;;;;;;11.15;9.88;;;20.40;99.90;;;;;;6134358;23;20026;-92
2023/06/22 05:50:49;;;;;;;16.48;10.30;;;20.50;99.90;;;;;;6131596;23;20083;-89
2023/06/22 05:53:39;;;;;;;16.83;8.77;;;20.50;1.00;;;;;;6129980;23;20310;-92
2023/06/22 05:56:28;;;;;;;12.45;9.35;;;20.50;1.00;;;;;;6131749;23;20021;-90
2023/06/22 05:59:15;;;;;;;17.02;9.80;;;20.50;1.00;;;;;;6130330;23;20029;-93
2023/06/22 06:02:03;;;;;;;10.80;8.52;;;20.40;1.00;;;;;;6135830;23;20068;-91
2023/06/22 06:04:52;;;;;;;13.82;8.52;;;20.40;1.00;;;;;;6110756;23;20097;-92
2023/06/22 06:07:42;;;;;;;15.57;8.43;;;20.50;99.90;;;;;;6154006;23;20116;-92
2023/06/22 06:10:31;;;;;;;15.70;8.15;;;20.50;1.00;;;;;;6151029;23;20033;-90
2023/06/22 06:13:33;;;;;;;9.50;8.10;;;20.60;99.90;;;;;;6151915;23;20058;-89
2023/06/22 06:16:22;;;;;;;14.15;8.30;;;20.80;99.90;;;;;;6132669;23;20037;-90
2023/06/22 06:19:13;;;;;;;11.98;8.65;;;20.80;99.90;;;;;;6156054;23;20025;-92
2023/06/22 06:22:12;;;;;;;16.85;8.52;;;20.90;99.90;;;;;;6166185;23;20029;-92
2023/06/22 06:25:02;;;;;;;14.05;8.00;;;21.00;57.80;;;;;;6139808;23;20033;-92
2023/06/22 06:27:54;;;;;;;12.50;7.63;;;21.10;1.00;;;;;;6158536;23;20056;-93
2023/06/22 06:30:43;;;;;;;14.65;8.73;;;21.20;1.00;;;;;;6152235;23;20044;-89
2023/06/22 06:33:31;;;;;;;12.02;6.88;;;21.40;1.00;;;;;;6131065;23;20036;-89
2023/06/22 06:36:22;;;;;;;15.10;7.70;;;21.50;1.00;;;;;;6149743;23;20021;-87
2023/06/22 06:39:09;;;;;;;13.45;6.47;;;21.70;99.90;;;;;;6137799;23;20055;-89
2023/06/22 06:42:19;;;;;;;11.38;6.95;;;21.80;99.90;;;;;;6170822;23;20025;-92
2023/06/22 06:45:15;;;;;;;;;;;22.10;99.90;;;;;;6152498;23;20117;-89
2023/06/22 06:48:07;;;;;;;12.15;6.45;;;22.30;99.90;;;;;;6151238;23;19939;-92
2023/06/22 06:50:54;;;;;;;10.27;6.40;;;22.40;99.90;;;;;;6172215;23;20013;-89
2023/06/22 06:53:41;;;;;;;11.23;6.60;;;22.50;99.90;;;;;;6172669;23;20071;-88
2023/06/22 06:56:30;;;;;;;10.75;5.95;;;22.60;99.90;;;;;;6167022;23;20045;-88
2023/06/22 06:59:19;;;;;;;11.15;6.18;;;22.90;99.90;;;;;;6168239;23;20048;-88
2023/06/22 07:02:25;;;;;;;10.40;6.25;;;23.10;41.80;;;;;;6152821;23;20017;-92
2023/06/22 07:05:17;;;;;;;15.25;6.70;;;23.50;1.00;;;;;;6151813;23;20029;-85
2023/06/22 07:08:05;;;;;;;10.52;5.68;;;23.80;1.00;;;;;;6156854;23;20013;-85
2023/06/22 07:10:55;;;;;;;12.52;5.85;;;24.20;1.00;;;;;;6173116;23;20028;-87
2023/06/22 07:13:49;;;;;;;10.48;5.40;;;24.30;1.00;;;;;;6164930;23;20489;-91
2023/06/22 07:16:40;;;;;;;9.05;5.07;;;24.50;1.00;;;;;;6142886;23;20093;-89
2023/06/22 07:19:32;;;;;;;9.93;5.75;;;24.90;1.00;;;;;;6142632;23;20010;-95
2023/06/22 07:22:20;;;;;;;9.60;5.60;;;25.10;99.90;;;;;;6143583;23;20071;-90
2023/06/22 07:25:13;;;;;;;9.82;5.35;;;25.50;99.90;;;;;;6157670;23;20025;-92
2023/06/22 07:28:36;;;;;;;8.80;4.75;;;25.70;99.90;;;;;;6139190;23;20423;-89
2023/06/22 07:31:25;;;;;;;11.55;5.95;;;25.90;99.90;;;;;;6117291;23;20022;-92
2023/06/22 07:34:22;;;;;;;12.80;5.45;;;26.30;99.90;;;;;;6152679;23;20029;-89
2023/06/22 07:37:10;;;;;;;10.07;5.75;;;26.60;99.90;;;;;;6128787;23;20037;-87
2023/06/22 07:40:00;;;;;;;12.43;5.53;;;26.80;99.90;;;;;;6151919;23;20196;-90
2023/06/22 07:42:51;;;;;;;13.15;5.43;;;26.90;99.90;;;;;;6130128;23;20119;-86
2023/06/22 07:45:40;;;;;;;8.85;5.00;;;27.30;99.90;;;;;;6150568;23;20033;-91
2023/06/22 07:48:27;;;;;;;11.32;5.22;;;27.20;99.90;;;;;;6151367;23;20321;-89
2023/06/22 07:51:14;;;;;;;17.17;5.97;;;27.30;99.90;;;;;;6150721;23;20061;-88
2023/06/22 07:54:02;;;;;;;11.80;5.40;;;27.60;99.90;;;;;;6149249;23;20273;-90
2023/06/22 07:56:52;;;;;;;11.18;5.93;;;27.70;99.90;;;;;;6150626;23;20030;-92
2023/06/22 07:59:39;;;;;;;14.38;5.75;;;28.20;99.90;;;;;;6110169;23;20794;-87
2023/06/22 08:02:36;;;;;;;9.90;6.00;;;28.00;99.90;;;;;;6128634;23;20113;-89
2023/06/22 08:05:23;;;;;;;8.38;5.57;;;28.00;99.90;;;;;;6152669;23;20316;-87
2023/06/22 08:08:11;;;;;;;10.27;6.18;;;27.60;99.90;;;;;;6130963;23;20281;-90
2023/06/22 08:11:05;;;;;;;10.48;5.85;;;27.20;99.90;;;;;;6132293;23;20405;-94
2023/06/22 08:13:55;;;;;;;12.63;6.25;;;27.70;99.90;;;;;;6135703;23;20026;-92
2023/06/22 08:16:42;;;;;;;17.45;6.50;;;27.80;99.90;;;;;;6156450;23;20324;-94
2023/06/22 08:19:31;;;;;;;9.93;5.32;;;27.30;99.90;;;;;;6155789;23;20029;-92
2023/06/22 08:22:27;;;;;;;13.43;5.72;;;27.60;99.90;;;;;;6158237;23;20040;-94
2023/06/22 08:25:22;;;;;;;11.85;5.53;;;27.40;99.90;;;;;;6158485;23;20132;-91
2023/06/22 08:28:10;;;;;;;10.07;6.07;;;27.20;99.90;;;;;;6134626;23;20036;-88
2023/06/22 08:31:00;;;;;;;12.65;5.70;;;27.10;99.90;;;;;;6129763;23;20032;-91
2023/06/22 08:33:48;;;;;;;11.70;6.07;;;27.00;99.90;;;;;;6130808;23;20037;-90
2023/06/22 08:36:44;;;;;;;11.57;5.85;;;27.40;99.90;;;;;;6153864;23;20495;-96
2023/06/22 08:39:32;;;;;;;10.27;5.57;;;27.50;99.90;;;;;;6132577;23;20025;-93
2023/06/22 08:42:23;;;;;;;10.18;6.13;;;27.20;99.90;;;;;;6132815;23;20370;-91
2023/06/22 08:45:16;;;;;;;10.90;6.10;;;27.00;99.90;;;;;;6152240;23;20323;-91
2023/06/22 08:48:04;;;;;;;12.32;6.00;;;27.20;99.90;;;;;;6159872;23;20101;-90
2023/06/22 08:50:51;;;;;;;13.00;6.65;;;27.30;99.90;;;;;;6153122;23;20716;-90
2023/06/22 08:53:39;;;;;;;13.35;6.32;;;27.20;99.90;;;;;;6150516;23;20030;-87
2023/06/22 08:56:26;;;;;;;16.15;6.07;;;26.80;99.90;;;;;;6129457;23;20026;-88
2023/06/22 08:59:13;;;;;;;11.10;5.57;;;26.70;99.90;;;;;;6130583;23;20032;-93
2023/06/22 09:02:01;;;;;;;10.25;6.28;;;27.30;99.90;;;;;;6151452;23;20052;-87
2023/06/22 09:04:49;;;;;;;11.68;5.75;;;27.90;99.90;;;;;;6132185;23;20037;-89
2023/06/22 09:07:37;;;;;;;12.18;5.40;;;27.80;99.90;;;;;;6128191;23;20045;-91
2023/06/22 09:10:27;;;;;;;9.90;5.80;;;28.40;99.90;;;;;;6150150;23;20025;-88
2023/06/22 09:13:15;;;;;;;11.55;5.60;;;28.60;99.90;;;;;;6148750;23;20033;-87
2023/06/22 09:16:05;;;;;;;16.08;6.25;;;29.00;99.90;;;;;;6127980;23;20022;-85
2023/06/22 09:18:52;;;;;;;12.13;6.43;;;29.60;99.90;;;;;;6150140;23;20110;-87
2023/06/22 09:21:40;;;;;;;13.00;6.72;;;29.30;99.90;;;;;;6129287;23;20060;-87
2023/06/22 09:24:27;;;;;;;13.35;6.05;;;29.40;99.90;;;;;;6129869;23;20083;-83
2023/06/22 09:27:15;;;;;;;12.45;6.38;;;29.90;99.90;;;;;;6128153;23;20120;-85
2023/06/22 09:30:03;;;;;;;12.45;5.85;;;30.80;99.90;;;;;;6130555;23;20490;-83
2023/06/22 09:32:51;;;;;;;12.90;5.53;;;30.90;99.90;;;;;;6149522;23;20025;-83
2023/06/22 09:35:41;;;;;;;11.50;5.47;;;30.90;99.90;;;;;;6130147;23;20026;-87
2023/06/22 09:38:28;;;;;;;16.27;6.30;;;30.70;99.90;;;;;;6151984;23;20045;-88
2023/06/22 09:41:16;;;;;;;10.10;5.68;;;30.50;99.90;;;;;;6130627;23;20079;-86
2023/06/22 09:44:03;;;;;;;10.30;5.85;;;30.90;99.90;;;;;;6151039;23;20105;-90
2023/06/22 09:46:55;;;;;;;14.15;6.10;;;31.30;99.90;;;;;;6152292;23;20085;-91
2023/06/22 09:49:43;;;;;;;11.90;5.43;;;31.80;99.90;;;;;;6152281;23;20106;-89
2023/06/22 09:52:34;;;;;;;11.27;5.38;;;32.60;99.90;;;;;;6150750;23;20481;-89
2023/06/22 09:55:34;;;;;;;14.82;5.70;;;33.10;99.90;;;;;;6134423;23;20052;-88
2023/06/22 09:58:21;;;;;;;8.75;5.75;;;33.70;96.80;;;;;;6131822;23;20026;-86
2023/06/22 10:01:10;;;;;;;12.20;5.65;;;32.30;99.90;;;;;;6128728;23;20053;-86
2023/06/22 10:03:58;;;;;;;10.93;6.07;;;31.50;99.90;;;;;;6128495;23;20074;-87
2023/06/22 10:06:46;;;;;;;14.50;5.57;;;31.10;99.90;;;;;;6151611;23;20039;-84
2023/06/22 10:09:33;;;;;;;9.63;5.38;;;30.90;99.90;;;;;;6129883;23;20076;-87
2023/06/22 10:12:20;;;;;;;16.35;5.97;;;31.40;99.90;;;;;;6152835;23;20022;-87
2023/06/22 10:15:13;;;;;;;10.93;5.80;;;31.60;99.90;;;;;;6130156;23;20108;-87
2023/06/22 10:18:04;;;;;;;14.60;5.70;;;32.30;99.90;;;;;;6150992;23;20049;-88
2023/06/22 10:20:52;;;;;;;12.80;5.20;;;32.70;99.90;;;;;;6151383;23;20026;-90
2023/06/22 10:23:48;;;;;;;11.55;5.38;;;33.40;99.90;;;;;;6151881;23;20021;-89
2023/06/22 10:26:37;;;;;;;12.85;5.38;;;33.30;99.90;;;;;;6135165;23;20037;-83
2023/06/22 10:29:24;;;;;;;8.52;4.82;;;33.80;99.90;;;;;;6148895;23;20021;-85
2023/06/22 10:32:11;;;;;;;11.98;5.25;;;34.40;99.90;;;;;;6149267;23;20421;-85
2023/06/22 10:34:59;;;;;;;11.55;5.38;;;35.10;99.90;;;;;;6156330;23;20037;-90
2023/06/22 10:37:47;;;;;;;11.30;5.47;;;35.00;99.90;;;;;;6135977;23;20085;-87
2023/06/22 10:40:34;;;;;;;12.60;4.90;;;34.70;99.90;;;;;;6152592;23;20349;-91
2023/06/22 10:43:21;;;;;;;8.13;4.93;;;34.80;99.90;;;;;;6111233;23;20029;-86
2023/06/22 10:46:16;;;;;;;10.32;5.43;;;34.40;99.90;;;;;;6154014;23;20029;-88
2023/06/22 10:49:04;;;;;;;11.85;5.40;;;33.80;99.90;;;;;;6154577;23;20030;-92
2023/06/22 10:51:51;;;;;;;14.38;5.72;;;33.00;99.90;;;;;;6149692;23;20022;-89
2023/06/22 10:54:40;;;;;;;14.43;6.00;;;32.40;99.90;;;;;;6130899;23;20032;-90
2023/06/22 10:57:28;;;;;;;12.20;5.85;;;32.00;87.90;;;;;;6131694;23;20033;-92
2023/06/22 11:00:16;;;;;;;11.02;5.13;;;32.30;99.60;;;;;;6153751;23;20053;-91
2023/06/22 11:03:03;;;;;;;14.70;6.30;;;32.30;99.90;;;;;;6155178;23;20455;-90
2023/06/22 11:05:51;;;;;;;17.38;5.75;;;31.90;99.90;;;;;;6158270;23;20029;-89
2023/06/22 11:08:38;;;;;;;11.80;5.63;;;31.60;99.90;;;;;;6127801;23;20029;-84
2023/06/22 11:11:29;;;;;;;10.88;5.65;;;31.20;99.90;;;;;;6131843;23;20045;-86
2023/06/22 11:14:17;;;;;;;12.68;6.13;;;31.10;99.90;;;;;;6130813;23;20026;-85
2023/06/22 11:17:05;;;;;;;17.70;5.88;;;30.90;99.90;;;;;;6134882;23;20454;-86
2023/06/22 11:19:52;;;;;;;12.25;6.22;;;30.90;99.90;;;;;;6130556;23;20029;-85
2023/06/22 11:22:42;;;;;;;14.00;5.72;;;31.00;99.90;;;;;;6131698;23;20108;-87
2023/06/22 11:25:30;;;;;;;13.27;5.60;;;31.20;99.90;;;;;;6150695;23;20071;-88
2023/06/22 11:28:19;;;;;;;10.90;5.53;;;31.60;99.90;;;;;;6131070;23;20040;-88
2023/06/22 11:31:07;;;;;;;13.15;5.75;;;32.60;99.90;;;;;;6130513;23;20666;-89
2023/06/22 11:34:11;;;;;;;11.70;6.00;;;32.90;99.90;;;;;;6150111;23;20017;-90
2023/06/22 11:37:00;;;;;;;10.50;5.93;;;33.30;99.90;;;;;;6152461;23;20147;-88
2023/06/22 11:39:49;;;;;;;11.23;6.63;;;33.60;99.90;;;;;;6131243;23;20032;-90
2023/06/22 11:42:54;;;;;;;10.55;5.95;;;33.50;99.90;;;;;;6134937;23;20040;-91
2023/06/22 11:45:42;;;;;;;16.10;6.53;;;33.10;99.90;;;;;;6149658;23;20026;-90
2023/06/22 11:48:31;;;;;;;15.48;6.95;;;32.30;99.90;;;;;;6130385;23;20034;-88
2023/06/22 11:51:37;;;;;;;;;;;;;;;;;;;;;
2023/06/22 11:54:29;;;;;;;9.77;5.95;;;31.60;99.90;;;;;;6150778;23;20045;-89
2023/06/22 11:58:02;;;;;;;;;;;;;;;;;;;;;
2023/06/22 12:01:00;;;;;;;12.45;6.07;;;31.40;99.90;;;;;;6152210;23;20021;-89
2023/06/22 12:03:48;;;;;;;16.02;6.30;;;30.90;99.90;;;;;;6131065;23;20140;-86
2023/06/22 12:06:38;;;;;;;12.68;6.00;;;30.20;99.90;;;;;;6152623;23;20278;-87
2023/06/22 12:09:28;;;;;;;18.40;6.78;;;29.90;99.90;;;;;;6132532;23;20030;-88
2023/06/22 12:12:16;;;;;;;12.88;6.75;;;30.00;99.90;;;;;;6150371;23;20021;-88
2023/06/22 12:15:04;;;;;;;9.93;5.55;;;30.20;99.90;;;;;;6153834;23;20021;-89
2023/06/22 12:17:51;;;;;;;14.07;6.80;;;30.30;99.90;;;;;;6150320;23;20021;-90
2023/06/22 12:20:41;;;;;;;11.73;6.43;;;30.60;99.90;;;;;;6130755;23;20118;-90
2023/06/22 12:23:31;;;;;;;13.88;6.88;;;29.70;99.90;;;;;;6132278;23;20057;-88
2023/06/22 12:26:21;;;;;;;17.73;8.15;;;29.10;99.90;;;;;;6131090;23;20029;-90
2023/06/22 12:29:16;;;;;;;19.77;8.20;;;28.80;99.90;;;;;;6158874;23;20353;-90
2023/06/22 12:32:20;;;;;;;12.98;7.22;;;28.70;99.90;;;;;;6152124;23;20021;-91
2023/06/22 12:35:13;;;;;;;16.08;6.93;;;28.80;99.90;;;;;;6144441;23;20029;-95
2023/06/22 12:38:02;;;;;;;15.05;7.00;;;28.60;99.90;;;;;;6135540;23;20041;-93
2023/06/22 12:40:52;;;;;;;10.20;6.07;;;28.60;99.90;;;;;;6133583;23;20366;-92
2023/06/22 12:43:43;;;;;;;15.32;6.88;;;28.50;99.90;;;;;;6154051;23;20026;-90
2023/06/22 12:46:36;;;;;;;15.88;7.40;;;28.50;99.90;;;;;;6131945;23;20040;-94
2023/06/22 12:49:36;;;;;;;;;;;;;;;;;;;;;
2023/06/22 12:56:20;;;;;;;;;;;;;;;;;;;;;
2023/06/22 12:59:47;;;;;;;12.75;6.60;;;28.20;99.90;;;;;;6183662;23;20039;-93
2023/06/22 13:03:27;;;;;;;;;;;;;;;;;;;;;
2023/06/22 13:15:55;;;;;;;;;;;;;;;;;;;;;
2023/06/22 14:08:26;;;;;;;;;;;;;;;;;;;;;
2023/06/22 14:11:31;;;;;;;13.50;5.68;;;35.40;90.80;;;;;;6196782;23;20056;-92
2023/06/22 14:14:42;;;;;;;17.20;5.93;;;34.60;66.90;;;;;;6197619;23;20032;-91
2023/06/22 14:17:50;;;;;;;12.93;5.47;;;33.10;66.00;;;;;;6078310;23;20061;-90
2023/06/22 14:20:39;;;;;;;17.85;5.95;;;32.00;58.70;;;;;;6195299;23;20036;-91
2023/06/22 14:23:27;;;;;;;12.65;5.85;;;31.90;61.70;;;;;;6196189;23;20053;-88
2023/06/22 14:26:23;;;;;;;13.43;4.95;;;32.00;61.80;;;;;;6195599;23;20077;-91
2023/06/22 14:29:12;;;;;;;15.75;5.07;;;32.50;68.50;;;;;;6197129;23;20135;-89
2023/06/22 14:32:08;;;;;;;13.90;4.95;;;33.60;84.80;;;;;;6200610;23;20029;-90
2023/06/22 14:35:37;;;;;;;12.50;4.22;;;34.50;80.50;;;;;;6107652;23;20030;-91
2023/06/22 14:38:42;;;;;;;18.63;4.18;;;34.20;57.00;;;;;;6116708;23;20025;-90
2023/06/22 14:41:31;;;;;;;12.00;3.83;;;33.70;54.50;;;;;;6114420;23;20168;-91
2023/06/22 14:44:20;;;;;;;13.55;3.78;;;33.70;49.90;;;;;;6113448;23;20033;-91
2023/06/22 14:47:07;;;;;;;15.95;3.88;;;34.30;73.50;;;;;;6108905;23;20022;-90
2023/06/22 14:49:55;;;;;;;13.05;3.72;;;33.30;74.00;;;;;;6110737;23;20030;-87
2023/06/22 14:52:43;;;;;;;15.43;3.72;;;32.50;85.40;;;;;;6190760;23;20385;-91
2023/06/22 14:55:31;;;;;;;13.57;3.53;;;32.10;78.40;;;;;;6186830;23;20045;-90
2023/06/22 14:58:18;;;;;;;11.73;3.83;;;31.80;51.70;;;;;;6190278;23;20025;-90
2023/06/22 15:01:08;;;;;;;14.85;3.85;;;31.50;49.70;;;;;;6189042;23;20321;-85
2023/06/22 15:03:58;;;;;;;11.77;3.50;;;31.70;60.90;;;;;;6192552;23;20517;-93
2023/06/22 15:06:51;;;;;;;17.23;4.13;;;31.70;54.70;;;;;;6168537;23;20100;-92
2023/06/22 15:10:03;;;;;;;11.55;3.33;;;31.50;47.70;;;;;;6189980;23;20029;-92
2023/06/22 15:13:01;;;;;;;11.00;4.13;;;31.40;56.40;;;;;;6192390;23;20032;-92
2023/06/22 15:16:09;;;;;;;12.27;4.35;;;32.00;45.90;;;;;;6174759;23;20025;-89
2023/06/22 15:18:58;;;;;;;14.40;4.03;;;31.60;39.60;;;;;;6201127;23;20029;-91
2023/06/22 15:21:45;;;;;;;10.85;3.47;;;31.00;47.20;;;;;;6203049;23;20017;-88
2023/06/22 15:24:35;;;;;;;20.42;3.63;;;30.50;42.30;;;;;;6203686;23;20027;-90
2023/06/22 15:27:23;;;;;;;9.13;3.72;;;30.50;43.90;;;;;;6208768;23;20025;-86
2023/06/22 15:31:00;;;;;;;8.60;3.53;;;30.30;38.70;;;;;;6214260;23;20008;-88
2023/06/22 15:33:49;;;;;;;13.55;3.63;;;30.10;43.80;;;;;;6197597;23;20025;-89
2023/06/22 15:36:44;;;;;;;9.57;3.63;;;29.70;56.10;;;;;;6195472;23;20021;-88
2023/06/22 15:39:32;;;;;;;15.27;3.80;;;29.60;56.40;;;;;;6199916;23;20045;-91
2023/06/22 15:42:21;;;;;;;15.40;4.68;;;29.50;54.10;;;;;;6194540;23;20031;-86
2023/06/22 15:45:08;;;;;;;11.98;4.25;;;29.50;49.00;;;;;;6193384;23;20044;-85
2023/06/22 15:47:56;;;;;;;11.60;3.72;;;29.20;44.30;;;;;;6190249;23;20060;-91
2023/06/22 15:50:46;;;;;;;11.20;3.65;;;29.00;40.10;;;;;;6188667;23;20033;-88
2023/06/22 15:53:34;;;;;;;12.47;3.57;;;28.90;40.50;;;;;;6191775;23;20321;-91
2023/06/22 15:56:30;;;;;;;16.17;4.32;;;28.70;38.40;;;;;;6195310;23;20025;-91